createdAt,value
2022-10-07T00:02:05.635Z,11.93
2022-10-07T00:04:32.666Z,8.73
2022-10-07T00:06:59.257Z,19.73
2022-10-07T00:09:25.906Z,14.15
2022-10-07T00:11:52.554Z,14.35
2022-10-07T00:14:19.146Z,14.63
2022-10-07T00:16:45.837Z,14.10
2022-10-07T00:19:13.852Z,10.30
2022-10-07T00:21:40.809Z,14.98
2022-10-07T00:24:08.449Z,14.50
2022-10-07T00:26:36.937Z,12.23
2022-10-07T00:29:07.108Z,9.68
2022-10-07T00:31:35.823Z,15.98
2022-10-07T00:34:03.959Z,12.07
2022-10-07T00:36:33.690Z,15.25
2022-10-07T00:39:03.133Z,14.90
2022-10-07T00:41:33.226Z,12.88
2022-10-07T00:44:20.476Z,15.85
2022-10-07T00:46:47.736Z,16.23
2022-10-07T00:49:14.660Z,12.68
2022-10-07T00:51:43.574Z,7.15
2022-10-07T00:54:14.576Z,14.05
2022-10-07T00:56:42.322Z,10.30
2022-10-07T00:59:09.884Z,13.00
2022-10-07T01:01:36.657Z,10.50
2022-10-07T01:04:04.153Z,15.77
2022-10-07T01:06:30.784Z,15.50
2022-10-07T01:08:57.674Z,11.73
2022-10-07T01:11:46.190Z,13.60
2022-10-07T01:14:19.691Z,13.23
2022-10-07T01:16:55.597Z,12.50
2022-10-07T01:20:02.035Z,10.75
2022-10-07T01:22:41.843Z,11.73
2022-10-07T01:25:32.283Z,11.95
2022-10-07T01:28:06.242Z,11.25
2022-10-07T01:30:37.098Z,10.07
2022-10-07T01:33:11.335Z,14.77
2022-10-07T01:35:42.510Z,13.90
2022-10-07T01:38:12.797Z,19.33
2022-10-07T01:40:46.410Z,19.48
2022-10-07T01:43:19.969Z,12.00
2022-10-07T01:45:48.964Z,14.88
2022-10-07T01:48:15.878Z,15.68
2022-10-07T01:50:43.204Z,13.27
2022-10-07T01:53:29.848Z,18.58
2022-10-07T01:56:21.287Z,10.90
2022-10-07T01:59:18.316Z,26.45
2022-10-07T02:02:01.105Z,13.40
2022-10-07T02:04:39.320Z,14.77
2022-10-07T02:07:17.638Z,12.82
2022-10-07T02:09:48.720Z,15.15
2022-10-07T02:12:34.282Z,12.80
2022-10-07T02:15:16.999Z,12.63
2022-10-07T02:17:50.096Z,12.82
2022-10-07T02:20:19.569Z,25.92
2022-10-07T02:22:49.867Z,15.77
2022-10-07T02:25:19.957Z,19.77
2022-10-07T02:27:50.561Z,16.00
2022-10-07T02:30:20.333Z,10.52
2022-10-07T02:32:54.003Z,14.00
2022-10-07T02:35:28.631Z,15.35
2022-10-07T02:37:58.349Z,18.10
2022-10-07T02:40:32.241Z,17.48
2022-10-07T02:43:06.547Z,12.40
2022-10-07T02:45:51.704Z,14.45
2022-10-07T02:48:32.324Z,22.98
2022-10-07T02:51:03.912Z,16.95
2022-10-07T02:53:33.203Z,14.02
2022-10-07T02:56:02.293Z,18.63
2022-10-07T02:58:28.973Z,18.88
2022-10-07T03:01:00.183Z,24.75
2022-10-07T03:03:28.190Z,16.90
2022-10-07T03:05:55.120Z,21.83
2022-10-07T03:08:22.383Z,21.08
2022-10-07T03:10:49.021Z,14.93
2022-10-07T03:13:15.769Z,20.00
2022-10-07T03:15:43.183Z,12.95
2022-10-07T03:18:26.472Z,24.42
2022-10-07T03:20:55.457Z,15.43
2022-10-07T03:23:24.739Z,16.48
2022-10-07T03:25:54.477Z,12.02
2022-10-07T03:28:23.822Z,15.85
2022-10-07T03:30:51.502Z,13.07
2022-10-07T03:33:20.132Z,16.55
2022-10-07T03:35:46.856Z,15.70
2022-10-07T03:38:13.490Z,25.58
2022-10-07T03:40:43.480Z,27.95
2022-10-07T03:43:10.171Z,21.52
2022-10-07T03:45:43.648Z,19.17
2022-10-07T03:48:10.372Z,19.45
2022-10-07T03:50:38.154Z,22.55
2022-10-07T03:53:05.133Z,23.73
2022-10-07T03:55:31.698Z,22.30
2022-10-07T03:57:59.672Z,16.80
2022-10-07T04:00:27.514Z,20.00
2022-10-07T04:02:57.522Z,21.20
2022-10-07T04:05:24.184Z,27.60
2022-10-07T04:07:52.232Z,21.25
2022-10-07T04:10:19.789Z,24.73
2022-10-07T04:12:48.675Z,28.25
2022-10-07T04:15:15.731Z,24.63
2022-10-07T04:17:44.875Z,27.92
2022-10-07T04:20:13.283Z,36.03
2022-10-07T04:22:39.983Z,32.88
2022-10-07T04:25:23.405Z,25.45
2022-10-07T04:27:53.909Z,25.60
2022-10-07T04:30:22.315Z,29.02
2022-10-07T04:32:50.719Z,21.30
2022-10-07T04:35:20.204Z,23.40
2022-10-07T04:37:48.890Z,23.77
2022-10-07T04:40:15.938Z,26.35
2022-10-07T04:42:57.864Z,27.77
2022-10-07T04:45:25.270Z,21.92
2022-10-07T04:47:51.946Z,28.30
2022-10-07T04:50:18.592Z,35.92
2022-10-07T04:52:46.491Z,26.15
2022-10-07T04:55:14.321Z,19.58
2022-10-07T04:57:41.676Z,28.75
2022-10-07T05:00:09.465Z,18.30
2022-10-07T05:02:36.518Z,21.98
2022-10-07T05:05:04.029Z,24.88
2022-10-07T05:07:32.439Z,25.15
2022-10-07T05:09:59.560Z,23.95
2022-10-07T05:12:26.661Z,17.65
2022-10-07T05:14:53.378Z,20.15
2022-10-07T05:17:20.528Z,21.05
2022-10-07T05:19:47.599Z,15.20
2022-10-07T05:22:14.269Z,20.40
2022-10-07T05:24:40.905Z,27.77
2022-10-07T05:27:07.575Z,18.05
2022-10-07T05:29:34.222Z,20.23
2022-10-07T05:32:04.812Z,18.40
2022-10-07T05:34:32.030Z,20.65
2022-10-07T05:36:59.418Z,20.95
2022-10-07T05:39:26.115Z,22.08
2022-10-07T05:41:52.834Z,20.42
2022-10-07T05:44:21.711Z,19.85
2022-10-07T05:46:48.594Z,18.85
2022-10-07T05:49:15.714Z,39.75
2022-10-07T05:51:42.454Z,26.33
2022-10-07T05:54:09.097Z,23.52
2022-10-07T05:56:37.657Z,27.90
2022-10-07T05:59:04.652Z,35.95
2022-10-07T06:01:31.475Z,24.23
2022-10-07T06:03:58.221Z,31.70
2022-10-07T06:06:28.118Z,29.98
2022-10-07T06:08:54.835Z,23.17
2022-10-07T06:11:36.758Z,25.80
2022-10-07T06:14:04.461Z,24.25
2022-10-07T06:16:31.480Z,31.60
2022-10-07T06:18:58.232Z,34.08
2022-10-07T06:21:28.061Z,27.13
2022-10-07T06:23:57.003Z,30.77
2022-10-07T06:26:24.234Z,27.13
2022-10-07T06:28:51.155Z,35.90
2022-10-07T06:31:26.419Z,24.17
2022-10-07T06:33:53.214Z,24.75
2022-10-07T06:36:19.875Z,28.75
2022-10-07T06:38:50.994Z,31.05
2022-10-07T06:41:18.331Z,29.70
2022-10-07T06:43:45.272Z,34.40
2022-10-07T06:46:16.168Z,34.72
2022-10-07T06:48:44.582Z,36.63
2022-10-07T06:51:15.383Z,47.40
2022-10-07T06:53:42.538Z,35.90
2022-10-07T06:56:11.693Z,43.70
2022-10-07T06:58:38.283Z,45.30
2022-10-07T07:01:06.248Z,52.78
2022-10-07T07:03:33.090Z,51.22
2022-10-07T07:05:59.734Z,56.00
2022-10-07T07:08:29.119Z,70.32
2022-10-07T07:10:56.543Z,64.68
2022-10-07T07:13:24.709Z,59.58
2022-10-07T07:15:57.159Z,68.28
2022-10-07T07:18:24.653Z,74.63
2022-10-07T07:20:51.871Z,66.20
2022-10-07T07:23:19.164Z,67.88
2022-10-07T07:25:47.444Z,77.65
2022-10-07T07:28:15.750Z,81.40
2022-10-07T07:30:42.892Z,88.50
2022-10-07T07:33:10.067Z,81.97
2022-10-07T07:35:41.260Z,80.13
2022-10-07T07:38:08.776Z,71.00
2022-10-07T07:40:39.670Z,79.65
2022-10-07T07:43:07.341Z,91.65
2022-10-07T07:45:36.863Z,80.50
2022-10-07T07:48:04.540Z,74.03
2022-10-07T07:50:31.160Z,82.60
2022-10-07T07:53:00.182Z,76.90
2022-10-07T07:55:26.884Z,69.93
2022-10-07T07:57:53.510Z,82.30
2022-10-07T08:00:20.165Z,80.90
2022-10-07T08:02:50.039Z,74.00
2022-10-07T08:05:23.723Z,91.88
2022-10-07T08:07:51.881Z,84.28
2022-10-07T08:10:18.711Z,89.88
2022-10-07T08:12:45.317Z,81.97
2022-10-07T08:15:12.046Z,76.65
2022-10-07T08:17:38.684Z,83.60
2022-10-07T08:20:05.771Z,88.03
2022-10-07T08:22:33.708Z,98.75
2022-10-07T08:25:00.399Z,98.47
2022-10-07T08:27:28.270Z,88.50
2022-10-07T08:29:54.890Z,113.55
2022-10-07T08:32:21.493Z,102.40
2022-10-07T08:34:48.109Z,93.20
2022-10-07T08:37:14.729Z,99.47
2022-10-07T08:39:41.343Z,98.40
2022-10-07T08:42:20.428Z,88.72
2022-10-07T08:44:49.557Z,87.57
2022-10-07T08:47:38.684Z,103.05
2022-10-07T08:50:19.540Z,50.72
2022-10-07T08:52:55.987Z,52.53
2022-10-07T08:58:06.485Z,53.50
2022-10-07T09:00:59.315Z,47.22
2022-10-07T09:03:26.925Z,49.20
2022-10-07T09:05:55.721Z,52.05
2022-10-07T09:08:28.713Z,49.72
2022-10-07T09:11:02.467Z,51.30
2022-10-07T09:13:40.402Z,55.05
2022-10-07T09:16:14.191Z,50.42
2022-10-07T09:18:59.712Z,46.80
2022-10-07T09:21:42.367Z,48.35
2022-10-07T09:24:16.247Z,50.88
2022-10-07T09:26:43.238Z,53.75
2022-10-07T09:29:10.799Z,47.80
2022-10-07T09:31:39.079Z,56.45
2022-10-07T09:34:06.796Z,50.97
2022-10-07T09:36:33.482Z,55.35
2022-10-07T09:39:22.590Z,52.67
2022-10-07T09:41:49.447Z,58.47
2022-10-07T09:44:16.027Z,58.33
2022-10-07T09:46:59.524Z,54.08
2022-10-07T09:49:27.246Z,55.63
2022-10-07T09:52:23.305Z,60.70
2022-10-07T09:54:52.630Z,71.60
2022-10-07T09:57:35.751Z,55.15
2022-10-07T10:00:26.215Z,64.63
2022-10-07T10:03:10.126Z,60.65
2022-10-07T10:05:41.450Z,56.53
2022-10-07T10:08:25.805Z,61.40
2022-10-07T10:10:55.729Z,57.83
2022-10-07T10:13:27.171Z,60.58
2022-10-07T10:15:53.873Z,55.75
2022-10-07T10:18:30.761Z,55.17
2022-10-07T10:21:14.823Z,74.88
2022-10-07T10:23:47.901Z,53.25
2022-10-07T10:26:41.998Z,66.45
2022-10-07T10:29:37.691Z,57.25
2022-10-07T10:32:15.759Z,59.80
2022-10-07T10:35:06.657Z,56.13
2022-10-07T10:38:04.231Z,51.28
2022-10-07T10:40:53.825Z,54.13
2022-10-07T10:43:34.298Z,56.95
2022-10-07T10:46:19.164Z,59.95
2022-10-07T10:48:55.586Z,53.25
2022-10-07T10:51:42.605Z,63.40
2022-10-07T10:54:17.972Z,58.97
2022-10-07T10:56:56.945Z,59.35
2022-10-07T10:59:45.586Z,58.97
2022-10-07T11:02:52.465Z,53.05
2022-10-07T11:05:32.247Z,61.43
2022-10-07T11:08:10.652Z,48.95
2022-10-07T11:10:47.386Z,49.78
2022-10-07T11:13:15.649Z,51.88
2022-10-07T11:15:47.758Z,53.00
2022-10-07T11:18:35.347Z,56.47
2022-10-07T11:21:07.933Z,48.25
2022-10-07T11:23:47.684Z,44.72
2022-10-07T11:26:15.297Z,52.22
2022-10-07T11:28:44.572Z,46.60
2022-10-07T11:31:24.454Z,44.35
2022-10-07T11:34:14.012Z,46.17
2022-10-07T11:36:54.013Z,46.15
2022-10-07T11:39:21.798Z,53.45
2022-10-07T11:41:56.776Z,53.28
2022-10-07T11:44:31.474Z,42.83
2022-10-07T11:47:03.016Z,47.97
2022-10-07T11:49:39.182Z,45.35
2022-10-07T11:52:10.824Z,41.50
2022-10-07T11:54:43.441Z,44.63
2022-10-07T11:57:21.829Z,43.05
2022-10-07T11:59:58.030Z,37.72
2022-10-07T12:05:04.003Z,44.97
2022-10-07T12:08:04.293Z,43.78
2022-10-07T12:10:33.571Z,41.25
2022-10-07T12:13:15.537Z,36.58
2022-10-07T12:15:43.583Z,38.30
2022-10-07T12:18:11.159Z,42.72
2022-10-07T12:20:53.202Z,44.78
2022-10-07T12:23:20.347Z,36.85
2022-10-07T12:25:49.654Z,41.00
2022-10-07T12:28:19.198Z,40.25
2022-10-07T12:30:55.548Z,43.63
2022-10-07T12:33:28.080Z,42.58
2022-10-07T12:35:55.195Z,49.83
2022-10-07T12:38:24.477Z,49.00
2022-10-07T12:41:07.360Z,42.63
2022-10-07T12:43:45.998Z,41.10
2022-10-07T12:46:16.991Z,40.10
2022-10-07T12:48:58.651Z,40.13
2022-10-07T12:51:30.337Z,40.13
2022-10-07T12:53:59.854Z,41.80
2022-10-07T12:56:30.277Z,45.20
2022-10-07T12:59:19.861Z,47.30
2022-10-07T13:02:24.218Z,50.22
2022-10-07T13:05:26.017Z,43.70
2022-10-07T13:08:26.781Z,42.08
2022-10-07T13:11:08.669Z,45.20
2022-10-07T13:13:52.167Z,43.85
2022-10-07T13:16:27.458Z,45.83
2022-10-07T13:19:29.391Z,45.37
2022-10-07T13:22:05.629Z,43.40
2022-10-07T13:27:00.157Z,38.70
2022-10-07T13:29:33.412Z,44.05
2022-10-07T13:32:15.040Z,38.97
2022-10-07T13:34:43.301Z,42.72
2022-10-07T13:37:31.280Z,43.10
2022-10-07T13:40:19.224Z,40.22
2022-10-07T13:42:46.370Z,43.88
2022-10-07T13:45:15.804Z,46.58
2022-10-07T13:47:46.904Z,48.40
2022-10-07T13:50:20.204Z,44.30
2022-10-07T13:52:49.855Z,38.75
2022-10-07T13:55:33.084Z,43.10
2022-10-07T13:58:04.290Z,43.10
2022-10-07T14:00:36.014Z,41.67
2022-10-07T14:03:13.767Z,43.78
2022-10-07T14:05:56.375Z,40.25
2022-10-07T14:08:27.837Z,36.78
2022-10-07T14:11:02.572Z,38.25
2022-10-07T14:13:30.977Z,43.00
2022-10-07T14:15:59.391Z,40.45
2022-10-07T14:18:31.841Z,43.47
2022-10-07T14:21:17.412Z,41.70
2022-10-07T14:23:47.041Z,39.22
2022-10-07T14:26:16.267Z,44.58
2022-10-07T14:28:43.369Z,42.03
2022-10-07T14:31:33.031Z,36.65
2022-10-07T14:34:15.860Z,41.53
2022-10-07T14:37:13.786Z,44.85
2022-10-07T14:39:42.855Z,34.22
2022-10-07T14:42:13.883Z,38.30
2022-10-07T14:44:44.587Z,42.47
2022-10-07T14:47:17.611Z,36.90
2022-10-07T14:49:44.658Z,43.80
2022-10-07T14:52:20.076Z,39.70
2022-10-07T14:54:47.297Z,41.93
2022-10-07T14:57:14.038Z,45.55
2022-10-07T14:59:40.659Z,48.08
2022-10-07T15:02:07.284Z,43.97
2022-10-07T15:04:34.041Z,50.10
2022-10-07T15:07:00.761Z,41.88
2022-10-07T15:09:27.402Z,41.05
2022-10-07T15:11:54.065Z,50.00
2022-10-07T15:14:21.029Z,42.28
2022-10-07T15:16:47.703Z,44.17
2022-10-07T15:19:15.261Z,50.25
2022-10-07T15:21:42.082Z,54.22
2022-10-07T15:24:08.661Z,44.25
2022-10-07T15:26:35.321Z,54.55
2022-10-07T15:29:01.924Z,57.50
2022-10-07T15:31:30.097Z,51.65
2022-10-07T15:33:57.938Z,50.75
2022-10-07T15:36:26.692Z,50.83
2022-10-07T15:38:53.531Z,55.17
2022-10-07T15:41:39.896Z,53.08
2022-10-07T15:44:13.754Z,54.50
2022-10-07T15:46:40.524Z,53.78
2022-10-07T15:49:07.594Z,50.50
2022-10-07T15:51:36.364Z,57.80
2022-10-07T15:54:04.604Z,59.78
2022-10-07T15:56:31.803Z,51.90
2022-10-07T15:59:00.471Z,54.70
2022-10-07T16:01:31.508Z,55.33
2022-10-07T16:03:59.908Z,49.50
2022-10-07T16:06:33.668Z,53.15
2022-10-07T16:09:04.670Z,53.97
2022-10-07T16:11:33.300Z,53.80
2022-10-07T16:14:02.030Z,54.25
2022-10-07T16:16:31.442Z,47.35
2022-10-07T16:19:00.113Z,51.90
2022-10-07T16:21:31.014Z,61.13
2022-10-07T16:24:01.855Z,50.50
2022-10-07T16:26:30.309Z,58.85
2022-10-07T16:29:14.763Z,51.58
2022-10-07T16:31:42.950Z,51.22
2022-10-07T16:34:13.449Z,50.22
2022-10-07T16:36:45.369Z,54.60
2022-10-07T16:39:12.763Z,55.35
2022-10-07T16:41:42.623Z,59.58
2022-10-07T16:44:09.319Z,54.15
2022-10-07T16:46:36.546Z,59.53
2022-10-07T16:49:06.103Z,61.13
2022-10-07T16:51:36.302Z,58.78
2022-10-07T16:54:07.441Z,58.47
2022-10-07T16:56:35.851Z,62.28
2022-10-07T16:59:05.206Z,53.83
2022-10-07T17:01:32.731Z,61.03
2022-10-07T17:04:01.154Z,64.88
2022-10-07T17:06:30.254Z,58.25
2022-10-07T17:09:01.303Z,60.20
2022-10-07T17:11:28.880Z,59.38
2022-10-07T17:13:59.080Z,57.45
2022-10-07T17:16:27.543Z,59.35
2022-10-07T17:18:54.417Z,55.80
2022-10-07T17:21:22.006Z,59.83
2022-10-07T17:23:49.494Z,64.00
2022-10-07T17:26:17.437Z,57.22
2022-10-07T17:28:44.331Z,62.72
2022-10-07T17:31:13.110Z,60.40
2022-10-07T17:33:42.369Z,58.90
2022-10-07T17:36:11.063Z,67.40
2022-10-07T17:38:43.594Z,65.13
2022-10-07T17:41:20.813Z,60.95
2022-10-07T17:43:48.989Z,55.05
2022-10-07T17:46:17.610Z,59.70
2022-10-07T17:48:45.753Z,56.88
2022-10-07T17:51:15.224Z,63.03
2022-10-07T17:53:42.874Z,58.10
2022-10-07T17:56:12.703Z,57.90
2022-10-07T17:58:40.905Z,60.75
2022-10-07T18:01:12.532Z,59.25
2022-10-07T18:03:41.216Z,64.30
2022-10-07T18:06:08.840Z,53.53
2022-10-07T18:08:36.621Z,55.53
2022-10-07T18:11:03.856Z,62.83
2022-10-07T18:13:48.313Z,60.90
2022-10-07T18:16:15.816Z,63.33
2022-10-07T18:18:43.104Z,55.88
2022-10-07T18:21:10.553Z,58.08
2022-10-07T18:23:37.833Z,60.47
2022-10-07T18:26:06.125Z,58.90
2022-10-07T18:28:40.773Z,57.23
2022-10-07T18:31:12.005Z,54.90
2022-10-07T18:33:38.994Z,59.38
2022-10-07T18:36:13.987Z,66.88
2022-10-07T18:38:43.513Z,62.13
2022-10-07T18:41:13.396Z,67.03
2022-10-07T18:43:41.597Z,70.95
2022-10-07T18:46:14.125Z,69.80
2022-10-07T18:48:42.248Z,69.60
2022-10-07T18:51:11.173Z,68.95
2022-10-07T18:53:40.049Z,76.93
2022-10-07T18:56:11.574Z,79.35
2022-10-07T18:58:41.229Z,63.95
2022-10-07T19:01:08.047Z,70.75
2022-10-07T19:03:34.996Z,64.13
2022-10-07T19:06:12.252Z,66.88
2022-10-07T19:08:39.322Z,71.30
2022-10-07T19:11:07.620Z,68.15
2022-10-07T19:13:51.071Z,74.13
2022-10-07T19:16:20.208Z,67.00
2022-10-07T19:18:48.690Z,65.35
2022-10-07T19:21:18.088Z,68.38
2022-10-07T19:23:44.956Z,79.35
2022-10-07T19:26:12.737Z,70.05
2022-10-07T19:28:40.709Z,80.00
2022-10-07T19:31:23.802Z,82.25
2022-10-07T19:33:52.939Z,85.88
2022-10-07T19:36:20.764Z,79.22
2022-10-07T19:38:52.347Z,82.72
2022-10-07T19:41:22.628Z,90.72
2022-10-07T19:43:49.781Z,88.68
2022-10-07T19:46:19.181Z,100.13
2022-10-07T19:48:46.120Z,98.30
2022-10-07T19:51:15.507Z,98.82
2022-10-07T19:53:46.880Z,104.15
2022-10-07T19:56:20.229Z,90.97
2022-10-07T19:58:49.676Z,102.40
2022-10-07T20:01:19.729Z,95.60
2022-10-07T20:03:47.321Z,88.22
2022-10-07T20:06:14.871Z,82.55
2022-10-07T20:08:46.597Z,81.40
2022-10-07T20:11:17.832Z,92.88
2022-10-07T20:13:44.511Z,96.07
2022-10-07T20:16:16.293Z,88.25
2022-10-07T20:18:44.015Z,112.13
2022-10-07T20:21:14.105Z,116.88
2022-10-07T20:23:43.080Z,116.80
2022-10-07T20:26:12.236Z,130.95
2022-10-07T20:28:38.973Z,120.82
2022-10-07T20:31:08.155Z,135.05
2022-10-07T20:33:40.446Z,127.43
2022-10-07T20:36:08.434Z,124.18
2022-10-07T20:38:52.859Z,128.32
2022-10-07T20:41:34.904Z,115.53
2022-10-07T20:44:01.905Z,124.47
2022-10-07T20:46:28.557Z,138.10
2022-10-07T20:48:55.245Z,132.60
2022-10-07T20:51:22.921Z,119.72
2022-10-07T20:53:50.911Z,125.03
2022-10-07T20:56:18.560Z,127.07
2022-10-07T20:58:45.624Z,125.25
2022-10-07T21:01:12.976Z,132.40
2022-10-07T21:03:40.133Z,142.57
2022-10-07T21:06:07.045Z,131.13
2022-10-07T21:08:33.689Z,136.85
2022-10-07T21:11:02.295Z,137.05
2022-10-07T21:13:30.452Z,131.95
2022-10-07T21:15:57.647Z,129.38
2022-10-07T21:18:26.555Z,144.85
2022-10-07T21:20:56.758Z,147.30
2022-10-07T21:23:25.082Z,143.18
2022-10-07T21:25:52.207Z,150.48
2022-10-07T21:28:19.363Z,141.75
2022-10-07T21:30:55.939Z,144.40
2022-10-07T21:33:22.649Z,142.18
2022-10-07T21:35:49.223Z,125.20
2022-10-07T21:38:15.826Z,151.35
2022-10-07T21:40:42.558Z,162.30
2022-10-07T21:43:09.180Z,148.30
2022-10-07T21:45:35.772Z,140.40
2022-10-07T21:48:02.389Z,137.73
2022-10-07T21:50:28.988Z,131.35
2022-10-07T21:52:55.590Z,146.52
2022-10-07T21:55:22.155Z,149.18
2022-10-07T21:57:48.801Z,170.00
2022-10-07T22:00:16.028Z,140.00
2022-10-07T22:02:43.127Z,162.43
2022-10-07T22:05:11.584Z,161.45
2022-10-07T22:07:53.540Z,163.95
2022-10-07T22:10:20.135Z,165.65
2022-10-07T22:12:47.238Z,165.85
2022-10-07T22:15:14.286Z,152.25
2022-10-07T22:17:40.901Z,127.15
2022-10-07T22:20:09.498Z,121.85
2022-10-07T22:22:36.293Z,123.60
2022-10-07T22:25:03.067Z,123.65
2022-10-07T22:27:29.686Z,126.75
2022-10-07T22:29:56.322Z,129.30
2022-10-07T22:32:22.965Z,137.68
2022-10-07T22:35:04.733Z,128.88
2022-10-07T22:37:31.633Z,150.73
2022-10-07T22:39:58.334Z,166.45
2022-10-07T22:42:24.912Z,184.73
2022-10-07T22:44:51.501Z,188.25
2022-10-07T22:47:18.091Z,178.73
2022-10-07T22:49:44.766Z,158.43
2022-10-07T22:52:11.394Z,161.35
2022-10-07T22:54:38.044Z,125.80
2022-10-07T22:57:07.016Z,162.88
2022-10-07T22:59:34.321Z,127.43
2022-10-07T23:02:02.138Z,123.47
2022-10-07T23:04:28.712Z,149.75
2022-10-07T23:06:55.348Z,162.68
2022-10-07T23:09:22.019Z,111.53
2022-10-07T23:11:48.641Z,153.50
2022-10-07T23:14:15.233Z,123.88
2022-10-07T23:16:42.355Z,148.13
2022-10-07T23:19:09.345Z,118.78
2022-10-07T23:21:37.003Z,109.30
2022-10-07T23:24:07.636Z,131.13
2022-10-07T23:26:35.836Z,129.20
2022-10-07T23:29:03.260Z,112.60
2022-10-07T23:31:32.138Z,138.60
2022-10-07T23:34:00.772Z,116.05
2022-10-07T23:36:28.165Z,142.85
2022-10-07T23:38:55.208Z,162.18
2022-10-07T23:41:25.988Z,110.25
2022-10-07T23:43:54.350Z,121.75
2022-10-07T23:46:22.896Z,124.93
2022-10-07T23:48:50.430Z,143.80
2022-10-07T23:51:21.177Z,112.28
2022-10-07T23:53:48.575Z,118.50
2022-10-07T23:56:15.504Z,111.43
2022-10-07T23:58:42.184Z,142.68
